Terminal Aerodrome Forecast
Issued by NWS Bismarck, ND

Home | Current Version | Previous Version | Graphics & Text | Print | Product List | Glossary On
Versions: 1 2 3 4 5 6 7 8 9 10 11 12 13 14 15 16 17
538
FTUS43 KBIS 250032 AAA
TAFISN
TAF AMD
KISN 250032Z 2501/2524 33019G28KT P6SM VCSH BKN025 BKN030
     FM250200 32014G23KT P6SM VCSH OVC025
     FM250400 31008KT P6SM BKN025
     FM251300 28006KT P6SM BKN120=

USA.gov is the U.S. government's official web portal to all federal, state and local government web resources and services.